Time;durP1;ratioP1;P1;durP2;ratioP2;P2;SDS_P1;SDS_P2;PMS_P1;PMS_P2;Temp;Humidity;BMP_temperature;BMP_pressure;BME280_temperature;BME280_humidity;BME280_pressure;Samples;Min_cycle;Max_cycle;Signal;HPM_P1;HPM_P2
2023/02/03 00:01:34;;;;;;;3.65;0.98;;;;;;;13.72;100.00;100718.25;7393240;19;20025;-60
2023/02/03 00:04:00;;;;;;;1.85;0.60;;;;;;;13.73;100.00;100711.41;7393594;19;20070;-60
2023/02/03 00:06:27;;;;;;;3.03;1.23;;;;;;;13.73;100.00;100711.41;7392981;19;20064;-60
2023/02/03 00:08:55;;;;;;;2.95;0.55;;;;;;;13.69;100.00;100715.16;7393718;19;20070;-60
2023/02/03 00:11:22;;;;;;;6.32;0.57;;;;;;;13.35;100.00;100709.28;7392891;19;20022;-60
2023/02/03 00:13:48;;;;;;;1.98;0.68;;;;;;;13.42;100.00;100704.13;7394456;19;20070;-61
2023/02/03 00:16:14;;;;;;;0.10;0.10;;;;;;;16.19;100.00;100694.88;7391537;19;20467;-60
2023/02/03 00:18:40;;;;;;;0.30;0.20;;;;;;;14.36;100.00;100691.31;7392238;19;20006;-61
2023/02/03 00:21:07;;;;;;;0.17;0.10;;;;;;;16.43;100.00;100684.16;7396416;19;20017;-61
2023/02/03 00:23:33;;;;;;;1.00;0.10;;;;;;;13.81;100.00;100687.41;7391306;19;20018;-60
2023/02/03 00:26:27;;;;;;;0.32;0.30;;;;;;;14.05;100.00;100665.75;7393885;19;20007;-61
2023/02/03 00:28:53;;;;;;;0.52;0.32;;;;;;;13.52;100.00;100677.63;7396674;19;20160;-62
2023/02/03 00:31:22;;;;;;;0.30;0.30;;;;;;;13.33;100.00;100679.00;7396788;19;20011;-61
2023/02/03 00:33:56;;;;;;;0.30;0.10;;;;;;;13.15;100.00;100679.06;7390252;19;20006;-65
2023/02/03 00:36:24;;;;;;;0.17;0.10;;;;;;;13.68;100.00;100682.03;7389422;19;20018;-61
2023/02/03 00:38:50;;;;;;;0.40;0.40;;;;;;;14.05;100.00;100682.53;7392023;19;20018;-60
2023/02/03 00:41:18;;;;;;;2.30;0.40;;;;;;;14.28;100.00;100678.91;7391598;19;20007;-61
2023/02/03 00:43:44;;;;;;;2.58;0.60;;;;;;;14.41;100.00;100687.84;7391294;19;20014;-60
2023/02/03 00:46:10;;;;;;;0.10;0.03;;;;;;;14.35;100.00;100692.59;7391844;19;20406;-61
2023/02/03 00:48:36;;;;;;;0.10;0.00;;;;;;;14.07;100.00;100694.03;7389396;19;20030;-61
2023/02/03 00:51:03;;;;;;;0.52;0.25;;;;;;;13.88;100.00;100698.25;7392595;19;20020;-61
2023/02/03 00:53:30;;;;;;;0.50;0.50;;;;;;;14.37;100.00;100695.69;7389914;19;20019;-61
2023/02/03 00:55:56;;;;;;;4.85;0.30;;;;;;;13.93;100.00;100697.56;7389203;19;20018;-61
2023/02/03 00:58:22;;;;;;;0.90;0.30;;;;;;;14.14;100.00;100707.69;7389915;19;20035;-61
2023/02/03 01:00:48;;;;;;;0.45;0.20;;;;;;;13.67;100.00;100709.25;7394188;19;20010;-61
2023/02/03 01:03:16;;;;;;;12.27;1.23;;;;;;;13.60;100.00;100704.00;7389329;19;20026;-61
2023/02/03 01:05:42;;;;;;;0.40;0.15;;;;;;;13.85;100.00;100707.59;7390660;19;20022;-61
2023/02/03 01:08:08;;;;;;;0.00;0.00;;;;;;;15.69;100.00;100710.34;7389313;19;20015;-60
2023/02/03 01:10:36;;;;;;;0.10;0.10;;;;;;;16.59;100.00;100720.13;7393127;19;20019;-61
2023/02/03 01:13:03;;;;;;;1.27;1.00;;;;;;;16.31;100.00;100721.84;7386731;19;20010;-61
2023/02/03 01:15:30;;;;;;;0.10;0.05;;;;;;;14.68;100.00;100728.88;7390341;19;20018;-61
2023/02/03 01:17:57;;;;;;;0.30;0.30;;;;;;;14.54;100.00;100724.78;7388485;19;20011;-61
2023/02/03 01:20:23;;;;;;;0.20;0.20;;;;;;;14.81;100.00;100727.28;7390302;19;20042;-61
2023/02/03 01:22:50;;;;;;;0.10;0.10;;;;;;;14.37;100.00;100726.50;7389310;19;20028;-60
2023/02/03 01:25:16;;;;;;;0.10;0.10;;;;;;;14.41;100.00;100724.28;7389949;19;20014;-61
2023/02/03 01:27:42;;;;;;;0.70;0.38;;;;;;;14.55;100.00;100720.75;7386496;19;20014;-61
2023/02/03 01:30:10;;;;;;;1.05;0.40;;;;;;;15.40;100.00;100721.63;7391216;19;20043;-61
2023/02/03 01:32:36;;;;;;;0.10;0.10;;;;;;;14.92;100.00;100726.75;7387148;19;20018;-61
2023/02/03 01:35:04;;;;;;;1.25;0.43;;;;;;;15.08;100.00;100723.41;7387130;19;20044;-61
2023/02/03 01:37:30;;;;;;;5.63;0.57;;;;;;;14.86;100.00;100725.84;7389295;19;20048;-61
2023/02/03 01:39:56;;;;;;;0.20;0.20;;;;;;;14.89;100.00;100736.88;7390487;19;20038;-58
2023/02/03 01:42:23;;;;;;;0.10;0.10;;;;;;;15.13;100.00;100734.75;7389351;19;20025;-58
2023/02/03 01:44:51;;;;;;;3.10;0.30;;;;;;;16.11;100.00;100741.53;7389008;19;20011;-59
2023/02/03 01:47:22;;;;;;;0.40;0.10;;;;;;;15.12;100.00;100747.22;7387264;19;20024;-58
2023/02/03 01:49:56;;;;;;;0.22;0.22;;;;;;;14.82;100.00;100759.72;7390235;19;20034;-58
2023/02/03 01:52:23;;;;;;;0.10;0.10;;;;;;;14.78;100.00;100753.53;7389087;19;20011;-59
2023/02/03 01:54:53;;;;;;;8.25;0.35;;;;;;;14.85;100.00;100757.97;7387210;19;20010;-58
2023/02/03 01:57:25;;;;;;;0.15;0.15;;;;;;;14.48;100.00;100760.34;7387311;19;20042;-58
2023/02/03 01:59:54;;;;;;;0.30;0.30;;;;;;;14.76;100.00;100747.63;7388826;19;20459;-58
2023/02/03 02:02:21;;;;;;;0.93;0.10;;;;;;;14.60;100.00;100756.50;7388916;19;20018;-58
2023/02/03 02:04:53;;;;;;;0.15;0.15;;;;;;;14.49;100.00;100735.91;7388299;19;20515;-58
2023/02/03 02:07:20;;;;;;;0.15;0.15;;;;;;;14.78;100.00;100728.28;7385381;19;20602;-58
2023/02/03 02:09:47;;;;;;;9.13;0.43;;;;;;;14.47;100.00;100736.38;7389444;19;20014;-58
2023/02/03 02:12:14;;;;;;;1.95;0.63;;;;;;;15.05;100.00;100725.16;7387652;19;20014;-60
2023/02/03 02:14:42;;;;;;;2.58;0.35;;;;;;;15.02;100.00;100728.16;7386294;19;20043;-59
2023/02/03 02:17:38;;;;;;;0.10;0.10;;;;;;;16.70;100.00;100724.34;7388727;19;20471;-60
2023/02/03 02:20:31;;;;;;;0.10;0.10;;;;;;;15.65;100.00;100729.44;7389715;19;20010;-59
2023/02/03 02:23:29;;;;;;;6.28;0.38;;;;;;;15.45;100.00;100724.53;7388449;19;20019;-59
2023/02/03 02:26:13;;;;;;;0.52;0.30;;;;;;;15.00;100.00;100728.66;7391556;19;20014;-59
2023/02/03 02:29:13;;;;;;;5.38;0.30;;;;;;;15.99;100.00;100737.03;7391278;19;20050;-59
2023/02/03 02:31:45;;;;;;;0.38;0.38;;;;;;;15.32;100.00;100720.47;7393838;19;20408;-59
2023/02/03 02:34:54;;;;;;;0.10;0.00;;;;;;;15.08;100.00;100718.59;7394796;19;20045;-59
2023/02/03 02:37:58;;;;;;;0.32;0.32;;;;;;;15.07;100.00;100714.22;7392063;19;20042;-59
2023/02/03 02:40:35;;;;;;;0.32;0.10;;;;;;;15.14;100.00;100710.25;7397138;19;20015;-59
2023/02/03 02:43:19;;;;;;;0.10;0.08;;;;;;;16.60;100.00;100716.06;7392427;19;20078;-59
2023/02/03 02:45:59;;;;;;;0.10;0.00;;;;;;;14.80;100.00;100725.75;7394471;19;20010;-59
2023/02/03 02:48:48;;;;;;;1.85;0.63;;;;;;;15.09;100.00;100725.72;7391233;19;20017;-59
2023/02/03 02:51:15;;;;;;;0.10;0.10;;;;;;;15.55;100.00;100722.41;7394723;19;20026;-59
2023/02/03 02:53:52;;;;;;;0.10;0.10;;;;;;;15.55;100.00;100722.41;7393299;19;20010;-59
2023/02/03 02:56:19;;;;;;;0.45;0.45;;;;;;;15.25;100.00;100720.88;7392447;19;20496;-60
2023/02/03 02:58:49;;;;;;;0.10;0.00;;;;;;;15.22;100.00;100727.47;7393661;19;20025;-59
2023/02/03 03:01:16;;;;;;;0.20;0.20;;;;;;;15.53;100.00;100731.28;7391023;19;20363;-59
2023/02/03 03:03:44;;;;;;;0.30;0.30;;;;;;;16.03;100.00;100740.41;7391733;19;20022;-59
2023/02/03 03:06:13;;;;;;;0.10;0.00;;;;;;;15.02;100.00;100737.38;7394370;19;20006;-59
2023/02/03 03:08:48;;;;;;;3.83;0.40;;;;;;;15.26;100.00;100739.25;7390495;19;20014;-59
2023/02/03 03:11:17;;;;;;;0.38;0.10;;;;;;;15.62;100.00;100750.81;7392922;19;20018;-59
2023/02/03 03:13:49;;;;;;;0.10;0.00;;;;;;;17.02;100.00;100748.41;7393528;19;20074;-59
2023/02/03 03:16:21;;;;;;;0.10;0.10;;;;;;;18.03;100.00;100757.06;7392528;19;20011;-59
2023/02/03 03:19:14;;;;;;;2.17;0.52;;;;;;;14.95;100.00;100757.38;7393923;19;20721;-59
2023/02/03 03:21:46;;;;;;;0.68;0.65;;;;;;;14.39;100.00;100754.81;7392442;19;20006;-59
2023/02/03 03:24:19;;;;;;;0.22;0.22;;;;;;;14.36;100.00;100755.75;7394861;19;20015;-59
2023/02/03 03:26:51;;;;;;;2.92;0.20;;;;;;;14.52;100.00;100765.75;7397032;19;20056;-59
2023/02/03 03:29:29;;;;;;;0.28;0.08;;;;;;;15.18;100.00;100767.72;7394654;19;20015;-59
2023/02/03 03:31:55;;;;;;;0.10;0.10;;;;;;;15.66;100.00;100770.28;7393875;19;20550;-59
2023/02/03 03:34:22;;;;;;;0.10;0.10;;;;;;;14.77;100.00;100765.97;7391890;19;20014;-59
2023/02/03 03:37:07;;;;;;;0.10;0.10;;;;;;;15.07;100.00;100766.78;7392632;19;20634;-59
2023/02/03 03:39:43;;;;;;;0.10;0.10;;;;;;;15.60;100.00;100775.81;7393821;19;20474;-59
2023/02/03 03:42:11;;;;;;;0.10;0.00;;;;;;;15.40;100.00;100783.41;7391696;19;20006;-59
2023/02/03 03:44:46;;;;;;;0.10;0.10;;;;;;;16.43;100.00;100796.63;7393105;19;20080;-63
2023/02/03 03:47:27;;;;;;;0.13;0.13;;;;;;;15.99;100.00;100789.63;7397238;19;20023;-60
2023/02/03 03:49:55;;;;;;;;;;;;;;;15.53;100.00;100797.91;7399046;19;20010;-60
2023/02/03 03:52:26;;;;;;;0.10;0.10;;;;;;;15.87;100.00;100797.16;7392262;19;19938;-60
2023/02/03 03:54:54;;;;;;;0.10;0.03;;;;;;;15.85;100.00;100802.50;7390915;19;20030;-60
2023/02/03 03:57:29;;;;;;;0.30;0.30;;;;;;;16.12;100.00;100807.72;7392509;19;20031;-60
2023/02/03 03:59:57;;;;;;;3.03;0.22;;;;;;;15.38;100.00;100797.91;7395249;19;20014;-59
2023/02/03 04:02:23;;;;;;;0.17;0.17;;;;;;;15.40;100.00;100795.38;7392327;19;20376;-60
2023/02/03 04:04:50;;;;;;;0.05;0.00;;;;;;;15.43;100.00;100793.63;7392134;19;20031;-60
2023/02/03 04:07:18;;;;;;;0.20;0.10;;;;;;;15.11;100.00;100790.59;7391079;19;20018;-60
2023/02/03 04:09:45;;;;;;;1.33;0.50;;;;;;;15.17;100.00;100799.84;7394207;19;20373;-59
2023/02/03 04:12:23;;;;;;;0.10;0.10;;;;;;;14.44;100.00;100813.75;7392275;19;20587;-59
2023/02/03 04:14:49;;;;;;;0.40;0.32;;;;;;;14.21;100.00;100813.75;7391983;19;20007;-59
2023/02/03 04:17:18;;;;;;;0.10;0.10;;;;;;;14.56;100.00;100816.78;7390243;19;20047;-59
2023/02/03 04:19:46;;;;;;;0.10;0.00;;;;;;;14.89;100.00;100821.03;7393109;19;20014;-59
2023/02/03 04:22:12;;;;;;;0.10;0.10;;;;;;;15.38;100.00;100819.56;7391200;19;20011;-60
2023/02/03 04:24:38;;;;;;;0.10;0.10;;;;;;;14.68;100.00;100819.38;7391231;19;20010;-59
2023/02/03 04:27:04;;;;;;;0.13;0.13;;;;;;;14.94;100.00;100814.72;7391010;19;20014;-60
2023/02/03 04:29:31;;;;;;;0.10;0.00;;;;;;;15.20;100.00;100821.31;7392962;19;20025;-60
2023/02/03 04:31:57;;;;;;;0.20;0.10;;;;;;;15.15;100.00;100824.03;7390601;19;20010;-60
2023/02/03 04:34:23;;;;;;;0.10;0.10;;;;;;;14.84;100.00;100821.69;7391180;19;20017;-60
2023/02/03 04:36:49;;;;;;;0.20;0.10;;;;;;;16.82;100.00;100813.19;7390489;19;20018;-60
2023/02/03 04:39:15;;;;;;;0.88;0.22;;;;;;;14.64;100.00;100829.22;7392005;19;20014;-60
2023/02/03 04:41:41;;;;;;;0.10;0.00;;;;;;;14.38;100.00;100834.53;7390695;19;20006;-60
2023/02/03 04:44:08;;;;;;;0.00;0.00;;;;;;;15.99;100.00;100840.22;7390530;19;20011;-60
2023/02/03 04:46:34;;;;;;;0.13;0.10;;;;;;;14.90;100.00;100825.38;7390003;19;20043;-60
2023/02/03 04:49:00;;;;;;;0.10;0.10;;;;;;;15.11;100.00;100829.06;7389567;19;20014;-60
2023/02/03 04:51:26;;;;;;;5.20;0.68;;;;;;;15.05;100.00;100828.97;7389431;19;20162;-60
2023/02/03 04:53:52;;;;;;;0.57;0.45;;;;;;;15.00;100.00;100840.09;7391110;19;20014;-60
2023/02/03 04:56:19;;;;;;;0.10;0.10;;;;;;;15.49;100.00;100833.81;7390822;19;20017;-60
2023/02/03 04:58:45;;;;;;;0.15;0.15;;;;;;;15.62;100.00;100839.91;7390213;19;20015;-60
2023/02/03 05:01:11;;;;;;;0.10;0.10;;;;;;;14.99;100.00;100844.94;7389894;19;20047;-60
2023/02/03 05:03:37;;;;;;;0.00;0.00;;;;;;;17.90;100.00;100844.09;7390405;19;20491;-60
2023/02/03 05:06:04;;;;;;;0.20;0.20;;;;;;;15.79;100.00;100841.72;7388261;19;20015;-59
2023/02/03 05:08:30;;;;;;;0.10;0.10;;;;;;;15.28;100.00;100841.38;7387834;19;20040;-60
2023/02/03 05:10:57;;;;;;;0.10;0.00;;;;;;;15.99;100.00;100841.00;7393245;19;20018;-60
2023/02/03 05:13:23;;;;;;;0.20;0.10;;;;;;;15.64;100.00;100854.22;7389588;19;20010;-60
2023/02/03 05:15:49;;;;;;;0.10;0.00;;;;;;;15.15;100.00;100847.28;7389766;19;20014;-60
2023/02/03 05:18:15;;;;;;;0.30;0.30;;;;;;;14.95;100.00;100846.38;7389981;19;20010;-60
2023/02/03 05:20:41;;;;;;;0.10;0.10;;;;;;;15.00;100.00;100863.31;7393315;19;20022;-60
2023/02/03 05:23:07;;;;;;;0.20;0.17;;;;;;;15.15;100.00;100864.09;7390487;19;20018;-60
2023/02/03 05:25:33;;;;;;;2.75;0.73;;;;;;;18.44;100.00;100857.00;7391633;19;20021;-60
2023/02/03 05:28:00;;;;;;;0.63;0.57;;;;;;;15.32;100.00;100863.63;7388480;19;20010;-60
2023/02/03 05:30:26;;;;;;;0.10;0.10;;;;;;;15.09;100.00;100871.63;7391816;19;20035;-61
2023/02/03 05:32:52;;;;;;;0.10;0.10;;;;;;;17.95;100.00;100861.03;7389492;19;20014;-60
2023/02/03 05:35:18;;;;;;;0.10;0.10;;;;;;;14.62;100.00;100873.78;7389762;19;20070;-60
2023/02/03 05:37:44;;;;;;;0.10;0.00;;;;;;;13.82;100.00;100882.91;7389748;19;20019;-61
2023/02/03 05:42:57;;;;;;;4.13;0.20;;;;;;;14.35;100.00;100875.50;7387629;19;20014;-61
2023/02/03 05:45:23;;;;;;;0.10;0.10;;;;;;;14.40;100.00;100879.69;7388965;19;20011;-61
2023/02/03 05:47:49;;;;;;;0.10;0.10;;;;;;;14.01;100.00;100892.00;7388141;19;20010;-61
2023/02/03 05:50:15;;;;;;;0.20;0.20;;;;;;;14.01;100.00;100894.81;7390255;19;20805;-61
2023/02/03 05:52:42;;;;;;;0.82;0.40;;;;;;;13.83;100.00;100889.28;7387588;19;20015;-61
2023/02/03 05:55:08;;;;;;;0.05;0.05;;;;;;;13.84;100.00;100896.44;7387225;19;20013;-61
2023/02/03 05:57:34;;;;;;;2.55;0.28;;;;;;;13.72;100.00;100900.22;7388560;19;20452;-61
2023/02/03 06:00:01;;;;;;;0.22;0.20;;;;;;;13.97;100.00;100906.16;7394275;19;20026;-61
2023/02/03 06:02:27;;;;;;;0.40;0.15;;;;;;;14.00;100.00;100905.25;7394761;19;20021;-61
2023/02/03 06:04:53;;;;;;;0.10;0.10;;;;;;;14.37;100.00;100903.03;7395146;19;20015;-61
2023/02/03 06:07:19;;;;;;;0.13;0.03;;;;;;;15.83;100.00;100903.34;7395419;19;20080;-61
2023/02/03 06:09:46;;;;;;;0.30;0.20;;;;;;;16.50;100.00;100907.94;7397084;19;20449;-61
2023/02/03 06:12:14;;;;;;;0.28;0.28;;;;;;;14.57;100.00;100916.47;7395351;19;20048;-61
2023/02/03 06:14:40;;;;;;;1.02;0.38;;;;;;;15.11;100.00;100916.84;7393824;19;20018;-61
2023/02/03 06:17:06;;;;;;;0.10;0.10;;;;;;;15.00;100.00;100924.25;7393806;19;20027;-61
2023/02/03 06:19:33;;;;;;;1.17;0.47;;;;;;;15.41;100.00;100931.69;7396562;19;20403;-61
2023/02/03 06:21:59;;;;;;;0.35;0.20;;;;;;;14.80;100.00;100927.69;7395805;19;20074;-61
2023/02/03 06:24:25;;;;;;;0.10;0.10;;;;;;;14.49;100.00;100930.06;7395499;19;20015;-61
2023/02/03 06:26:51;;;;;;;1.55;0.25;;;;;;;14.44;100.00;100936.34;7399497;19;20021;-61
2023/02/03 06:29:17;;;;;;;0.10;0.10;;;;;;;14.26;100.00;100933.59;7396509;19;20006;-61
2023/02/03 06:31:43;;;;;;;0.40;0.20;;;;;;;14.01;100.00;100945.22;7393171;19;20014;-61
2023/02/03 06:34:09;;;;;;;0.10;0.10;;;;;;;13.96;100.00;100943.06;7392677;19;20471;-61
2023/02/03 06:36:36;;;;;;;1.23;0.28;;;;;;;14.04;100.00;100938.66;7393621;19;20017;-62
2023/02/03 06:39:02;;;;;;;0.20;0.10;;;;;;;13.89;100.00;100941.38;7394947;19;20013;-61
2023/02/03 06:41:29;;;;;;;0.65;0.22;;;;;;;14.31;100.00;100947.00;7395358;19;20015;-61
2023/02/03 06:43:55;;;;;;;2.55;0.65;;;;;;;14.26;100.00;100947.59;7394922;19;20022;-61
2023/02/03 06:46:21;;;;;;;0.63;0.47;;;;;;;14.29;100.00;100955.09;7393311;19;20017;-61
2023/02/03 06:48:47;;;;;;;2.50;0.22;;;;;;;14.22;100.00;100955.41;7392031;19;20003;-61
2023/02/03 06:51:13;;;;;;;2.58;1.02;;;;;;;13.94;100.00;100960.34;7394193;19;20017;-61
2023/02/03 06:53:40;;;;;;;5.88;0.47;;;;;;;13.73;100.00;100957.75;7394304;19;20025;-61
2023/02/03 06:56:06;;;;;;;0.10;0.10;;;;;;;13.62;100.00;100956.22;7394965;19;20332;-61
2023/02/03 06:58:32;;;;;;;1.55;0.77;;;;;;;14.08;100.00;100964.47;7394392;19;20010;-61
2023/02/03 07:00:58;;;;;;;1.33;0.47;;;;;;;14.25;100.00;100954.47;7401901;19;20329;-66
2023/02/03 07:03:24;;;;;;;0.32;0.25;;;;;;;14.24;100.00;100958.50;7398516;19;20038;-64
2023/02/03 07:05:50;;;;;;;1.20;0.45;;;;;;;14.00;100.00;100971.66;7395748;19;20022;-61
2023/02/03 07:08:16;;;;;;;9.18;0.73;;;;;;;14.03;100.00;100973.53;7392233;19;20031;-61
2023/02/03 07:10:43;;;;;;;0.30;0.13;;;;;;;13.84;100.00;100983.25;7397257;19;20019;-61
2023/02/03 07:13:09;;;;;;;0.10;0.10;;;;;;;14.00;100.00;100988.47;7392345;19;20018;-61
2023/02/03 07:15:35;;;;;;;0.20;0.20;;;;;;;13.85;100.00;100996.00;7394410;19;20034;-61
2023/02/03 07:18:01;;;;;;;1.52;0.32;;;;;;;13.85;100.00;100993.19;7394005;19;20014;-61
2023/02/03 07:20:27;;;;;;;0.65;0.65;;;;;;;13.95;100.00;100986.31;7397064;19;20066;-61
2023/02/03 07:22:55;;;;;;;1.75;0.30;;;;;;;14.21;100.00;100988.25;7393636;19;20349;-61
2023/02/03 07:25:23;;;;;;;0.10;0.10;;;;;;;14.40;100.00;100984.13;7394416;19;20018;-61
2023/02/03 07:27:50;;;;;;;0.90;0.20;;;;;;;14.56;100.00;100979.38;7391607;19;20006;-61
2023/02/03 07:30:16;;;;;;;1.10;0.32;;;;;;;14.72;100.00;100985.38;7395977;19;20018;-62
2023/02/03 07:32:49;;;;;;;0.75;0.20;;;;;;;14.58;100.00;100988.09;7393496;19;20331;-62
2023/02/03 07:35:16;;;;;;;0.10;0.10;;;;;;;14.29;100.00;100988.72;7393470;19;20035;-62
2023/02/03 07:37:42;;;;;;;0.40;0.30;;;;;;;14.79;100.00;100999.03;7392936;19;20515;-63
2023/02/03 07:40:10;;;;;;;0.95;0.43;;;;;;;14.63;100.00;100996.66;7395741;19;20014;-62
2023/02/03 07:42:44;;;;;;;1.48;0.25;;;;;;;15.62;100.00;100999.97;7392639;19;20022;-62
2023/02/03 07:45:11;;;;;;;0.10;0.10;;;;;;;15.69;100.00;100999.59;7391915;19;20011;-64
2023/02/03 07:47:38;;;;;;;0.10;0.10;;;;;;;15.79;100.00;101001.81;7391508;19;20007;-62
2023/02/03 07:50:04;;;;;;;0.10;0.00;;;;;;;14.84;100.00;101006.78;7392289;19;20253;-62
2023/02/03 07:52:30;;;;;;;0.10;0.00;;;;;;;15.01;100.00;101010.72;7392708;19;20030;-63
2023/02/03 07:54:57;;;;;;;0.40;0.40;;;;;;;15.40;100.00;101005.16;7391120;19;20338;-62
2023/02/03 07:57:23;;;;;;;10.13;0.77;;;;;;;15.14;100.00;101011.25;7391194;19;20475;-62
2023/02/03 07:59:49;;;;;;;6.22;0.43;;;;;;;15.03;100.00;101024.28;7394613;19;20014;-62
2023/02/03 08:02:15;;;;;;;0.10;0.05;;;;;;;14.89;100.00;101031.41;7395337;19;20016;-62
2023/02/03 08:04:41;;;;;;;0.10;0.10;;;;;;;14.67;100.00;101028.09;7393307;19;20066;-61
2023/02/03 08:07:07;;;;;;;0.35;0.35;;;;;;;14.71;100.00;101030.69;7394495;19;20444;-61
2023/02/03 08:09:34;;;;;;;0.28;0.28;;;;;;;14.60;100.00;101031.22;7394712;19;20019;-62
2023/02/03 08:12:00;;;;;;;0.10;0.10;;;;;;;14.94;100.00;101041.94;7392413;19;20014;-61
2023/02/03 08:14:26;;;;;;;0.10;0.10;;;;;;;16.70;100.00;101039.38;7390337;19;20031;-61
2023/02/03 08:16:52;;;;;;;1.23;0.55;;;;;;;14.69;100.00;101050.81;7393292;19;20014;-62
2023/02/03 08:19:18;;;;;;;0.20;0.20;;;;;;;14.44;100.00;101046.41;7394077;19;20052;-61
2023/02/03 08:21:44;;;;;;;0.20;0.10;;;;;;;14.47;100.00;101055.88;7393710;19;20052;-62
2023/02/03 08:24:11;;;;;;;3.08;1.38;;;;;;;14.43;100.00;101058.09;7392377;19;20467;-61
2023/02/03 08:26:37;;;;;;;0.10;0.10;;;;;;;14.84;100.00;101060.09;7396876;19;20034;-61
2023/02/03 08:29:04;;;;;;;0.35;0.35;;;;;;;15.28;100.00;101053.88;7394404;19;20006;-61
2023/02/03 08:31:30;;;;;;;0.10;0.10;;;;;;;15.90;100.00;101058.22;7391747;19;20031;-61
2023/02/03 08:33:56;;;;;;;0.10;0.10;;;;;;;15.94;100.00;101060.81;7391586;19;20026;-62
2023/02/03 08:36:22;;;;;;;0.10;0.00;;;;;;;17.09;100.00;101066.78;7390378;19;20105;-61
2023/02/03 08:38:49;;;;;;;0.10;0.10;;;;;;;19.61;100.00;101053.84;7391251;19;20019;-61
2023/02/03 08:41:19;;;;;;;0.13;0.13;;;;;;;21.49;99.00;101055.03;7388541;19;20014;-61
2023/02/03 08:43:46;;;;;;;1.10;0.20;;;;;;;17.71;100.00;101071.94;7390113;19;20034;-61
2023/02/03 08:46:13;;;;;;;0.25;0.20;;;;;;;26.02;72.32;101061.50;7389261;19;20021;-61
2023/02/03 08:48:39;;;;;;;0.65;0.40;;;;;;;18.96;100.00;101074.84;7389992;19;20631;-61
2023/02/03 08:51:13;;;;;;;0.75;0.30;;;;;;;22.07;100.00;101072.78;7393303;19;20010;-61
2023/02/03 08:53:40;;;;;;;0.65;0.20;;;;;;;16.60;100.00;101070.44;7391218;19;20010;-61
2023/02/03 08:56:07;;;;;;;0.35;0.35;;;;;;;16.24;100.00;101076.44;7388536;19;20635;-61
2023/02/03 08:58:34;;;;;;;0.63;0.30;;;;;;;15.65;100.00;101080.44;7389975;19;20019;-61
2023/02/03 09:01:14;;;;;;;0.30;0.20;;;;;;;15.54;100.00;101086.63;7395037;19;20329;-61
2023/02/03 09:03:41;;;;;;;0.93;0.35;;;;;;;16.30;100.00;101080.13;7388840;19;20019;-62
2023/02/03 09:06:10;;;;;;;0.65;0.40;;;;;;;15.31;100.00;101083.81;7391108;19;20030;-61
2023/02/03 09:08:36;;;;;;;0.10;0.10;;;;;;;16.86;100.00;101078.22;7388889;19;20015;-61
2023/02/03 09:11:07;;;;;;;0.68;0.22;;;;;;;15.82;100.00;101084.34;7394274;19;20015;-61
2023/02/03 09:13:33;;;;;;;;;;;;;;;16.89;100.00;101071.63;7391275;19;20006;-61
2023/02/03 09:16:00;;;;;;;0.20;0.20;;;;;;;16.24;100.00;101082.03;7387796;19;19915;-61
2023/02/03 09:18:26;;;;;;;4.97;0.28;;;;;;;15.04;100.00;101079.94;7388222;19;20288;-61
2023/02/03 09:21:02;;;;;;;0.55;0.40;;;;;;;15.13;100.00;101079.88;7393113;19;20448;-61
2023/02/03 09:23:29;;;;;;;0.40;0.20;;;;;;;16.04;100.00;101079.16;7389734;19;20018;-61
2023/02/03 09:25:55;;;;;;;0.32;0.32;;;;;;;15.65;100.00;101080.44;7391850;19;20011;-62
2023/02/03 09:28:22;;;;;;;0.38;0.38;;;;;;;16.08;100.00;101093.00;7388935;19;20021;-62
2023/02/03 09:30:48;;;;;;;1.17;0.45;;;;;;;16.50;100.00;101082.28;7395347;19;20027;-61
2023/02/03 09:33:14;;;;;;;0.20;0.00;;;;;;;16.25;100.00;101089.22;7390963;19;20467;-62
2023/02/03 09:35:40;;;;;;;0.10;0.10;;;;;;;16.12;100.00;101096.41;7388431;19;20013;-61
2023/02/03 09:38:06;;;;;;;0.55;0.25;;;;;;;16.17;100.00;101102.13;7389566;19;20074;-61
2023/02/03 09:40:35;;;;;;;0.25;0.13;;;;;;;18.55;100.00;101088.41;7393701;19;20022;-61
2023/02/03 09:43:13;;;;;;;0.20;0.20;;;;;;;16.98;100.00;101102.47;7388438;19;20025;-61
2023/02/03 09:45:40;;;;;;;0.77;0.20;;;;;;;16.93;100.00;101101.09;7389506;19;20062;-62
2023/02/03 09:48:17;;;;;;;0.28;0.10;;;;;;;17.06;100.00;101098.75;7386465;19;20031;-61
2023/02/03 09:50:45;;;;;;;0.52;0.28;;;;;;;16.93;100.00;101112.38;7391617;19;20013;-61
2023/02/03 09:53:24;;;;;;;1.85;0.40;;;;;;;16.83;100.00;101110.16;7389272;19;20017;-61
2023/02/03 09:55:50;;;;;;;0.28;0.20;;;;;;;15.09;100.00;101126.94;7387922;19;20015;-61
2023/02/03 09:58:21;;;;;;;0.68;0.20;;;;;;;15.87;100.00;101108.97;7388893;19;20034;-61
2023/02/03 10:01:12;;;;;;;0.13;0.13;;;;;;;24.85;96.23;101077.41;7391841;19;20007;-61
2023/02/03 10:04:04;;;;;;;0.60;0.20;;;;;;;22.73;89.20;101095.00;7388175;19;20010;-61
2023/02/03 10:06:36;;;;;;;0.63;0.13;;;;;;;17.08;100.00;101103.88;7388249;19;20365;-61
2023/02/03 10:09:05;;;;;;;0.65;0.20;;;;;;;19.60;100.00;101108.81;7386911;19;20010;-61
2023/02/03 10:11:48;;;;;;;0.10;0.00;;;;;;;18.49;100.00;101101.72;7387753;19;20045;-61
2023/02/03 10:14:51;;;;;;;0.60;0.10;;;;;;;19.33;100.00;101105.84;7387643;19;20006;-61
2023/02/03 10:17:25;;;;;;;2.33;0.38;;;;;;;17.28;100.00;101117.97;7388628;19;20034;-61
2023/02/03 10:20:00;;;;;;;0.57;0.38;;;;;;;17.52;100.00;101115.75;7390292;19;20023;-61
2023/02/03 10:22:29;;;;;;;0.40;0.10;;;;;;;17.30;100.00;101133.09;7388724;19;20007;-61
2023/02/03 10:25:14;;;;;;;1.45;0.22;;;;;;;16.92;100.00;101126.91;7390437;19;20518;-61
2023/02/03 10:27:42;;;;;;;0.10;0.10;;;;;;;16.47;100.00;101140.22;7387823;19;20360;-61
2023/02/03 10:30:18;;;;;;;0.30;0.28;;;;;;;16.67;100.00;101136.75;7395729;19;20007;-61
2023/02/03 10:32:44;;;;;;;0.10;0.00;;;;;;;17.28;100.00;101151.78;7390624;19;20010;-61
2023/02/03 10:35:12;;;;;;;0.10;0.10;;;;;;;16.98;100.00;101147.50;7389027;19;20014;-61
2023/02/03 10:37:44;;;;;;;1.75;0.20;;;;;;;16.65;100.00;101145.66;7387780;19;20018;-61
2023/02/03 10:40:13;;;;;;;0.88;0.17;;;;;;;17.18;100.00;101153.16;7390819;19;20022;-61
2023/02/03 10:45:26;;;;;;;0.10;0.10;;;;;;;16.23;100.00;101156.41;7388271;19;20015;-61
2023/02/03 10:47:54;;;;;;;0.10;0.10;;;;;;;16.16;100.00;101159.59;7393492;19;20014;-61
2023/02/03 10:50:30;;;;;;;0.15;0.00;;;;;;;16.72;100.00;101155.00;7397603;19;20530;-61
2023/02/03 10:53:21;;;;;;;9.48;0.40;;;;;;;16.79;100.00;101148.94;7392738;19;20017;-61
2023/02/03 10:56:00;;;;;;;0.75;0.30;;;;;;;17.18;100.00;101158.78;7395460;19;20018;-61
2023/02/03 10:58:28;;;;;;;1.10;0.30;;;;;;;16.99;100.00;101160.28;7393342;19;20006;-61
2023/02/03 11:01:25;;;;;;;0.10;0.00;;;;;;;17.83;100.00;101168.63;7398692;19;20471;-61
2023/02/03 11:03:59;;;;;;;0.32;0.20;;;;;;;18.25;100.00;101165.28;7392452;19;20464;-61
2023/02/03 11:06:26;;;;;;;0.90;0.32;;;;;;;17.44;100.00;101168.09;7393899;19;20086;-61
2023/02/03 11:08:53;;;;;;;1.17;0.85;;;;;;;18.32;100.00;101170.50;7391089;19;20074;-61
2023/02/03 11:11:30;;;;;;;0.35;0.25;;;;;;;17.81;100.00;101174.78;7394553;19;20490;-61
2023/02/03 11:14:01;;;;;;;2.45;0.93;;;;;;;17.68;100.00;101168.72;7394219;19;20014;-60
2023/02/03 11:16:33;;;;;;;0.47;0.20;;;;;;;17.52;100.00;101186.16;7394379;19;20081;-61
2023/02/03 11:19:10;;;;;;;0.10;0.10;;;;;;;17.18;100.00;101189.75;7395233;19;20010;-61
2023/02/03 11:21:36;;;;;;;0.55;0.20;;;;;;;17.41;100.00;101183.94;7392691;19;20015;-61
2023/02/03 11:24:10;;;;;;;0.20;0.00;;;;;;;17.43;100.00;101195.50;7391808;19;20011;-61
2023/02/03 11:26:52;;;;;;;1.40;1.08;;;;;;;17.23;100.00;101189.06;7394991;19;20014;-61
2023/02/03 11:29:27;;;;;;;0.30;0.20;;;;;;;17.33;100.00;101198.94;7393688;19;20505;-61
2023/02/03 11:31:56;;;;;;;0.90;0.40;;;;;;;17.33;100.00;101204.56;7393735;19;20018;-61
2023/02/03 11:34:56;;;;;;;4.68;0.77;;;;;;;17.31;100.00;101195.81;7393315;19;20031;-61